Midnight Wolf — YJWD9 — position and weather

sailwx.info

Track history (hours):
 
Tides and Currents Weather Stations Pressure Air Temp Water Temp Dewpoint Dewpoint Depression Visibility Wind Speed Wind Dir Waves Ship Positions

Midnight Wolf

Last reported at 2017-Sep-07 16:58 UTC. Time now 2017-Nov-21 19:12 UTC.
Position N 17°13' W 062°41'.
Warning: this ship's position is months out of date.

Length 51 m; draft 4 m.

Type: Cargo ship. MMSI: 577365000.

Date/timePositionNaut miles runAvg speedWind from/ knotsBaromVisibWave heightAir tempDewpointWater temp
2017-Sep-07 16:58N 17°13' W 062°41'4 8.4
2017-Sep-07 16:30N 17°16' W 062°42'  
2017-Sep-04 14:01N 18°20' W 064°38'0 7.4
2017-Sep-04 13:59N 18°20' W 064°38'4 7.4
2017-Sep-04 13:30N 18°23' W 064°37'2 0.3
2017-Sep-04 06:40N 18°25' W 064°36'0 0.0
2017-Sep-04 06:26N 18°25' W 064°36'2 3.7
2017-Sep-04 06:00N 18°23' W 064°37'5 8.8
2017-Sep-04 05:26N 18°19' W 064°39'4 8.4
2017-Sep-04 04:58N 18°17' W 064°43'4 8.6
2017-Sep-04 04:30N 18°17' W 064°47'4 8.7
2017-Sep-04 04:00N 18°17' W 064°52'1 0.1
2017-Sep-03 21:05N 18°17' W 064°53'1 9.6
2017-Sep-03 20:59N 18°17' W 064°52'13 8.8
2017-Sep-03 19:30N 18°20' W 064°38'3 6.5
2017-Sep-03 19:00N 18°22' W 064°35'3 2.3
2017-Sep-03 17:39N 18°25' W 064°36'1 9.2
2017-Sep-03 17:30N 18°23' W 064°36'2 3.6
2017-Sep-03 17:00N 18°22' W 064°35'0 0.0
2017-Sep-03 16:30N 18°22' W 064°35'2 3.3
2017-Sep-03 15:59N 18°23' W 064°36'2 0.1
2017-Sep-02 18:39N 18°25' W 064°36'2 9.5
2017-Sep-02 18:30N 18°23' W 064°37'6 9.7
2017-Sep-02 17:51N 18°18' W 064°41'4 8.7
2017-Sep-02 17:23N 18°17' W 064°45'3 8.5
2017-Sep-02 17:00N 18°16' W 064°48'4 8.8
2017-Sep-02 16:30N 18°17' W 064°53'0 0.1
2017-Sep-02 12:46N 18°17' W 064°52'7 9.3
2017-Sep-02 12:04N 18°17' W 064°45'8 8.6
2017-Sep-02 11:08N 18°21' W 064°38'1 9.0
2017-Sep-02 11:00N 18°22' W 064°38'  
2017-Aug-29 15:38N 18°25' W 064°36'1 9.4
2017-Aug-29 15:30N 18°24' W 064°35'  
Track history (hours):
 
Tides and Currents Weather Stations Pressure Air Temp Water Temp Dewpoint Dewpoint Depression Visibility Wind Speed Wind Dir Waves Ship Positions

Midnight Wolf

Last reported at 2017-Sep-07 16:58 UTC. Time now 2017-Nov-21 19:12 UTC.
Position N 17°13' W 062°41'.
Warning: this ship's position is months out of date.

Length 51 m; draft 4 m.

Type: Cargo ship. MMSI: 577365000.

Date/timePositionNaut miles runAvg speedWind from/ knotsBaromVisibWave heightAir tempDewpointWater temp
2017-Sep-07 16:58N 17°13' W 062°41'4 8.4
2017-Sep-07 16:30N 17°16' W 062°42'  
2017-Sep-04 14:01N 18°20' W 064°38'0 7.4
2017-Sep-04 13:59N 18°20' W 064°38'4 7.4
2017-Sep-04 13:30N 18°23' W 064°37'2 0.3
2017-Sep-04 06:40N 18°25' W 064°36'0 0.0
2017-Sep-04 06:26N 18°25' W 064°36'2 3.7
2017-Sep-04 06:00N 18°23' W 064°37'5 8.8
2017-Sep-04 05:26N 18°19' W 064°39'4 8.4
2017-Sep-04 04:58N 18°17' W 064°43'4 8.6
2017-Sep-04 04:30N 18°17' W 064°47'4 8.7
2017-Sep-04 04:00N 18°17' W 064°52'1 0.1
2017-Sep-03 21:05N 18°17' W 064°53'1 9.6
2017-Sep-03 20:59N 18°17' W 064°52'13 8.8
2017-Sep-03 19:30N 18°20' W 064°38'3 6.5
2017-Sep-03 19:00N 18°22' W 064°35'3 2.3
2017-Sep-03 17:39N 18°25' W 064°36'1 9.2
2017-Sep-03 17:30N 18°23' W 064°36'2 3.6
2017-Sep-03 17:00N 18°22' W 064°35'0 0.0
2017-Sep-03 16:30N 18°22' W 064°35'2 3.3
2017-Sep-03 15:59N 18°23' W 064°36'2 0.1
2017-Sep-02 18:39N 18°25' W 064°36'2 9.5
2017-Sep-02 18:30N 18°23' W 064°37'6 9.7
2017-Sep-02 17:51N 18°18' W 064°41'4 8.7
2017-Sep-02 17:23N 18°17' W 064°45'3 8.5
2017-Sep-02 17:00N 18°16' W 064°48'4 8.8
2017-Sep-02 16:30N 18°17' W 064°53'0 0.1
2017-Sep-02 12:46N 18°17' W 064°52'7 9.3
2017-Sep-02 12:04N 18°17' W 064°45'8 8.6
2017-Sep-02 11:08N 18°21' W 064°38'1 9.0
2017-Sep-02 11:00N 18°22' W 064°38'  
2017-Aug-29 15:38N 18°25' W 064°36'1 9.4
2017-Aug-29 15:30N 18°24' W 064°35'  

Dump ship's entire track history